createdAt,value
2018-02-08T00:01:25.747Z,76.92
2018-02-08T00:03:54.010Z,77.18
2018-02-08T00:06:22.270Z,77.10
2018-02-08T00:08:51.960Z,77.15
2018-02-08T00:11:20.194Z,77.54
2018-02-08T00:13:48.454Z,77.46
2018-02-08T00:16:16.707Z,78.12
2018-02-08T00:18:45.736Z,78.38
2018-02-08T00:21:13.991Z,78.57
2018-02-08T00:23:42.253Z,78.75
2018-02-08T00:26:11.277Z,78.81
2018-02-08T00:28:39.544Z,78.99
2018-02-08T00:31:07.801Z,78.84
2018-02-08T00:33:36.826Z,78.56
2018-02-08T00:36:05.099Z,78.87
2018-02-08T00:38:33.349Z,78.91
2018-02-08T00:41:01.613Z,78.69
2018-02-08T00:43:30.641Z,78.90
2018-02-08T00:45:58.905Z,78.75
2018-02-08T00:48:27.156Z,79.72
2018-02-08T00:50:56.191Z,79.74
2018-02-08T00:53:24.441Z,79.36
2018-02-08T00:55:52.745Z,79.54
2018-02-08T00:58:20.998Z,79.46
2018-02-08T01:00:49.249Z,79.35
2018-02-08T01:03:18.274Z,79.38
2018-02-08T01:05:46.534Z,80.26
2018-02-08T01:08:15.565Z,79.84
2018-02-08T01:10:43.822Z,79.41
2018-02-08T01:13:12.081Z,79.36
2018-02-08T01:15:40.341Z,78.97
2018-02-08T01:18:09.371Z,79.49
2018-02-08T01:20:37.627Z,79.51
2018-02-08T01:23:05.884Z,79.76
2018-02-08T01:25:34.910Z,79.59
2018-02-08T01:28:03.169Z,79.33
2018-02-08T01:30:31.427Z,79.60
2018-02-08T01:33:00.459Z,79.46
2018-02-08T01:35:28.715Z,79.35
2018-02-08T01:37:56.974Z,79.75
2018-02-08T01:40:25.995Z,80.06
2018-02-08T01:42:54.258Z,80.40
2018-02-08T01:45:23.283Z,80.63
2018-02-08T01:47:51.538Z,81.00
2018-02-08T01:50:19.790Z,80.99
2018-02-08T01:52:48.823Z,80.94
2018-02-08T01:55:17.070Z,80.90
2018-02-08T01:57:45.333Z,81.21
2018-02-08T02:00:14.346Z,81.80
2018-02-08T02:02:42.606Z,81.41
2018-02-08T02:05:11.622Z,81.41
2018-02-08T02:07:39.882Z,81.49
2018-02-08T02:10:08.906Z,81.78
2018-02-08T02:12:37.159Z,81.96
2018-02-08T02:15:05.410Z,82.16
2018-02-08T02:17:34.437Z,82.30
2018-02-08T02:20:02.684Z,82.10
2018-02-08T02:22:31.706Z,82.70
2018-02-08T02:24:59.962Z,81.99
2018-02-08T02:27:28.217Z,82.00
2018-02-08T02:29:56.479Z,82.25
2018-02-08T02:32:24.731Z,82.34
2018-02-08T02:34:52.992Z,82.44
2018-02-08T02:37:21.254Z,81.97
2018-02-08T02:39:49.517Z,82.10
2018-02-08T02:42:18.539Z,82.00
2018-02-08T02:44:46.795Z,82.22
2018-02-08T02:47:15.048Z,82.27
2018-02-08T02:49:44.074Z,82.21
2018-02-08T02:52:12.329Z,82.32
2018-02-08T02:54:41.356Z,82.15
2018-02-08T02:57:09.614Z,82.45
2018-02-08T02:59:37.861Z,82.27
2018-02-08T03:02:06.894Z,82.17
2018-02-08T03:04:35.155Z,82.45
2018-02-08T03:07:03.417Z,82.61
2018-02-08T03:09:32.439Z,82.60
2018-02-08T03:12:00.695Z,82.69
2018-02-08T03:14:28.953Z,82.57
2018-02-08T03:16:57.987Z,82.53
2018-02-08T03:19:26.239Z,82.96
2018-02-08T03:21:54.499Z,82.92
2018-02-08T03:24:23.515Z,82.99
2018-02-08T03:26:51.770Z,83.19
2018-02-08T03:29:20.787Z,82.95
2018-02-08T03:31:49.054Z,82.95
2018-02-08T03:34:17.307Z,83.05
2018-02-08T03:36:46.335Z,83.07
2018-02-08T03:39:14.597Z,83.46
2018-02-08T03:41:42.853Z,83.70
2018-02-08T03:44:11.879Z,84.01
2018-02-08T03:46:40.142Z,84.18
2018-02-08T03:49:08.404Z,84.14
2018-02-08T03:51:37.430Z,84.42
2018-02-08T03:54:05.678Z,84.55
2018-02-08T03:56:34.691Z,84.51
2018-02-08T03:59:02.942Z,84.43
2018-02-08T04:01:31.961Z,84.84
2018-02-08T04:04:00.222Z,85.16
2018-02-08T04:06:28.469Z,85.22
2018-02-08T04:08:57.495Z,85.07
2018-02-08T04:11:25.746Z,85.29
2018-02-08T04:13:54.785Z,85.66
2018-02-08T04:16:23.038Z,85.82
2018-02-08T04:18:51.969Z,85.45
2018-02-08T04:21:20.231Z,85.58
2018-02-08T04:23:48.490Z,85.70
2018-02-08T04:26:16.737Z,85.35
2018-02-08T04:28:45.762Z,85.76
2018-02-08T04:31:14.015Z,85.63
2018-02-08T04:33:43.039Z,85.86
2018-02-08T04:36:11.291Z,85.88
2018-02-08T04:38:57.314Z,85.95
2018-02-08T04:41:43.265Z,86.20
2018-02-08T04:47:34.797Z,86.04
2018-02-08T04:50:03.819Z,86.13
2018-02-08T04:52:32.066Z,86.47
2018-02-08T04:55:01.094Z,86.52
2018-02-08T04:57:29.346Z,86.78
2018-02-08T04:59:57.603Z,86.90
2018-02-08T05:02:26.626Z,86.86
2018-02-08T05:04:54.888Z,86.48
2018-02-08T05:07:23.147Z,85.67
2018-02-08T05:09:52.186Z,85.81
2018-02-08T05:12:20.425Z,86.04
2018-02-08T05:14:49.450Z,85.89
2018-02-08T05:17:17.702Z,85.90
2018-02-08T05:19:45.962Z,85.95
2018-02-08T05:22:14.977Z,86.64
2018-02-08T05:24:43.247Z,87.50
2018-02-08T05:27:12.259Z,88.11
2018-02-08T05:29:40.551Z,87.90
2018-02-08T05:32:08.797Z,87.46
2018-02-08T05:34:37.055Z,87.41
2018-02-08T05:37:06.086Z,87.01
2018-02-08T05:39:34.333Z,86.40
2018-02-08T05:42:02.602Z,86.02
2018-02-08T05:44:31.625Z,86.03
2018-02-08T05:46:59.895Z,85.75
2018-02-08T05:49:28.154Z,85.68
2018-02-08T05:51:57.179Z,86.14
2018-02-08T05:54:25.429Z,86.31
2018-02-08T05:56:53.703Z,86.37
2018-02-08T05:59:22.718Z,86.09
2018-02-08T06:01:50.974Z,85.69
2018-02-08T06:04:19.226Z,85.52
2018-02-08T06:06:48.249Z,85.43
2018-02-08T06:09:16.501Z,85.51
2018-02-08T06:11:45.530Z,85.58
2018-02-08T06:14:13.782Z,85.53
2018-02-08T06:16:42.810Z,85.47
2018-02-08T06:19:11.066Z,85.20
2018-02-08T06:21:39.325Z,84.74
2018-02-08T06:24:08.343Z,84.83
2018-02-08T06:26:36.608Z,85.05
2018-02-08T06:29:04.864Z,85.03
2018-02-08T06:31:33.895Z,85.10
2018-02-08T06:34:02.146Z,85.46
2018-02-08T06:36:30.416Z,85.74
2018-02-08T06:38:59.428Z,85.95
2018-02-08T06:41:27.689Z,86.18
2018-02-08T06:43:55.942Z,86.39
2018-02-08T06:46:24.966Z,86.38
2018-02-08T06:48:53.221Z,86.50
2018-02-08T06:51:22.243Z,86.43
2018-02-08T06:53:50.526Z,86.95
2018-02-08T06:56:18.810Z,87.53
2018-02-08T06:58:47.081Z,87.78
2018-02-08T07:01:15.386Z,87.75
2018-02-08T07:03:43.662Z,87.69
2018-02-08T07:06:11.922Z,87.86
2018-02-08T07:08:40.181Z,88.02
2018-02-08T07:11:08.455Z,87.94
2018-02-08T07:13:36.755Z,87.71
2018-02-08T07:16:05.045Z,88.00
2018-02-08T07:18:33.329Z,88.06
2018-02-08T07:21:01.602Z,88.05
2018-02-08T07:23:29.897Z,88.14
2018-02-08T07:25:58.945Z,88.13
2018-02-08T07:28:27.204Z,88.41
2018-02-08T07:30:55.505Z,88.27
2018-02-08T07:33:23.835Z,88.31
2018-02-08T07:35:52.882Z,88.55
2018-02-08T07:38:21.175Z,88.65
2018-02-08T07:40:49.441Z,88.95
2018-02-08T07:43:17.848Z,88.74
2018-02-08T07:45:46.924Z,88.29
2018-02-08T07:48:15.303Z,88.34
2018-02-08T07:50:43.628Z,88.07
2018-02-08T07:53:11.996Z,87.51
2018-02-08T07:55:40.306Z,87.32
2018-02-08T07:58:08.601Z,87.94
2018-02-08T08:00:36.949Z,87.67
2018-02-08T08:03:05.277Z,87.64
2018-02-08T08:05:34.373Z,87.41
2018-02-08T08:08:03.457Z,87.18
2018-02-08T08:10:31.781Z,86.56
2018-02-08T08:13:00.081Z,86.05
2018-02-08T08:15:28.447Z,85.69
2018-02-08T08:17:56.776Z,85.18
2018-02-08T08:20:25.894Z,84.56
2018-02-08T08:22:54.258Z,83.97
2018-02-08T08:25:23.366Z,82.81
2018-02-08T08:27:51.747Z,83.51
2018-02-08T08:30:20.155Z,82.86
2018-02-08T08:32:48.503Z,82.52
2018-02-08T08:35:16.932Z,83.00
2018-02-08T08:37:45.348Z,82.52
2018-02-08T08:40:14.512Z,82.35
2018-02-08T08:42:44.399Z,82.25
2018-02-08T08:45:12.844Z,81.28
2018-02-08T08:47:42.004Z,82.09
2018-02-08T08:50:10.392Z,82.11
2018-02-08T08:52:38.809Z,82.61
2018-02-08T08:55:07.191Z,82.37
2018-02-08T08:57:35.502Z,83.10
2018-02-08T09:00:03.823Z,82.60
2018-02-08T09:02:32.954Z,82.63
2018-02-08T09:05:01.332Z,82.09
2018-02-08T09:07:29.659Z,81.28
2018-02-08T09:09:58.767Z,80.94
2018-02-08T09:12:27.939Z,80.24
2018-02-08T09:14:56.279Z,80.40
2018-02-08T09:17:24.641Z,79.68
2018-02-08T09:19:52.984Z,80.22
2018-02-08T09:22:22.128Z,79.63
2018-02-08T09:24:50.492Z,79.44
2018-02-08T09:27:18.865Z,79.37
2018-02-08T09:29:47.234Z,79.28
2018-02-08T09:32:15.577Z,78.39
2018-02-08T09:34:43.900Z,78.59
2018-02-08T09:37:12.276Z,79.27
2018-02-08T09:39:40.648Z,79.39
2018-02-08T09:42:09.011Z,79.25
2018-02-08T09:44:38.206Z,78.17
2018-02-08T09:47:07.412Z,77.31
2018-02-08T09:49:35.789Z,76.85
2018-02-08T09:52:04.932Z,75.30
2018-02-08T09:54:33.252Z,76.53
2018-02-08T09:57:02.452Z,75.40
2018-02-08T09:59:30.814Z,75.46
2018-02-08T10:01:59.199Z,74.65
2018-02-08T10:04:28.793Z,74.90
2018-02-08T10:06:57.147Z,76.58
2018-02-08T10:09:25.553Z,76.18
2018-02-08T10:11:53.945Z,75.22
2018-02-08T10:14:23.122Z,76.37
2018-02-08T10:16:51.521Z,75.42
2018-02-08T10:19:20.728Z,75.39
2018-02-08T10:21:49.836Z,75.66
2018-02-08T10:24:18.233Z,74.13
2018-02-08T10:26:46.615Z,74.05
2018-02-08T10:29:14.953Z,74.52
2018-02-08T10:31:44.065Z,73.26
2018-02-08T10:34:12.414Z,73.12
2018-02-08T10:36:40.813Z,73.08
2018-02-08T10:39:09.961Z,72.03
2018-02-08T10:41:38.398Z,71.94
2018-02-08T10:44:06.868Z,71.47
2018-02-08T10:46:36.046Z,71.96
2018-02-08T10:49:04.491Z,71.30
2018-02-08T10:51:32.961Z,71.16
2018-02-08T10:54:01.271Z,70.53
2018-02-08T10:56:29.673Z,69.98
2018-02-08T10:58:58.775Z,68.58
2018-02-08T11:01:27.969Z,68.34
2018-02-08T11:03:56.320Z,67.24
2018-02-08T11:06:24.662Z,68.23
2018-02-08T11:08:52.987Z,68.47
2018-02-08T11:11:22.106Z,63.26
2018-02-08T11:13:51.241Z,59.13
2018-02-08T11:16:19.628Z,58.87
2018-02-08T11:18:47.984Z,57.69
2018-02-08T11:21:16.360Z,56.05
2018-02-08T11:23:44.764Z,55.99
2018-02-08T11:26:13.158Z,56.37
2018-02-08T11:28:41.580Z,54.34
2018-02-08T11:31:10.796Z,55.76
2018-02-08T11:33:39.146Z,54.37
2018-02-08T11:36:08.226Z,55.43
2018-02-08T11:38:36.663Z,54.85
2018-02-08T11:41:05.078Z,53.48
2018-02-08T11:43:33.548Z,53.38
2018-02-08T11:46:02.157Z,53.54
2018-02-08T11:48:30.579Z,52.19
2018-02-08T11:50:58.995Z,52.19
2018-02-08T11:53:27.377Z,49.86
2018-02-08T11:55:55.732Z,51.79
2018-02-08T11:58:24.153Z,52.66
2018-02-08T12:00:52.555Z,55.22
2018-02-08T12:03:20.984Z,54.62
2018-02-08T12:05:49.388Z,54.45
2018-02-08T12:08:17.766Z,53.28
2018-02-08T12:10:46.214Z,52.96
2018-02-08T12:13:14.679Z,52.95
2018-02-08T12:15:43.052Z,56.20
2018-02-08T12:18:11.468Z,56.93
2018-02-08T12:20:39.826Z,59.54
2018-02-08T12:23:08.148Z,58.91
2018-02-08T12:25:36.578Z,59.49
2018-02-08T12:28:04.871Z,62.62
2018-02-08T12:30:33.227Z,63.18
2018-02-08T12:33:01.547Z,64.26
2018-02-08T12:35:29.903Z,65.73
2018-02-08T12:37:58.290Z,65.42
2018-02-08T12:40:26.598Z,62.97
2018-02-08T12:42:55.763Z,63.29
2018-02-08T12:45:24.167Z,61.82
2018-02-08T12:47:53.356Z,59.19
2018-02-08T12:50:22.491Z,60.15
2018-02-08T12:52:50.821Z,58.70
2018-02-08T12:55:19.933Z,55.79
2018-02-08T12:57:49.056Z,52.80
2018-02-08T13:00:17.389Z,54.31
2018-02-08T13:02:45.754Z,52.36
2018-02-08T13:05:14.096Z,50.00
2018-02-08T13:07:42.414Z,49.88
2018-02-08T13:10:10.816Z,51.95
2018-02-08T13:12:40.025Z,49.56
2018-02-08T13:15:08.418Z,51.84
2018-02-08T13:17:36.963Z,47.87
2018-02-08T13:20:05.402Z,49.71
2018-02-08T13:22:33.883Z,48.33
2018-02-08T13:25:02.246Z,47.53
2018-02-08T13:27:30.675Z,50.41
2018-02-08T13:29:59.003Z,48.20
2018-02-08T13:32:27.401Z,49.23
2018-02-08T13:34:55.822Z,49.47
2018-02-08T13:37:24.990Z,48.22
2018-02-08T13:39:53.475Z,46.64
2018-02-08T13:42:22.185Z,49.49
2018-02-08T13:44:51.410Z,49.79
2018-02-08T13:50:42.978Z,47.42
2018-02-08T13:56:31.734Z,51.36
2018-02-08T14:02:06.839Z,49.47
2018-02-08T14:04:35.158Z,48.94
2018-02-08T14:07:03.494Z,53.89
2018-02-08T14:09:31.883Z,50.54
2018-02-08T14:12:00.968Z,49.71
2018-02-08T14:14:29.295Z,48.87
2018-02-08T14:16:57.609Z,49.15
2018-02-08T14:19:25.941Z,48.83
2018-02-08T14:21:54.291Z,51.15
2018-02-08T14:24:23.522Z,50.92
2018-02-08T14:26:52.001Z,50.11
2018-02-08T14:29:20.412Z,51.05
2018-02-08T14:31:48.862Z,50.87
2018-02-08T14:34:17.342Z,52.45
2018-02-08T14:36:45.802Z,49.23
2018-02-08T14:39:15.036Z,49.01
2018-02-08T14:41:43.465Z,50.07
2018-02-08T14:44:12.713Z,48.39
2018-02-08T14:46:41.168Z,52.04
2018-02-08T14:49:09.595Z,52.66
2018-02-08T14:51:38.727Z,50.33
2018-02-08T14:54:07.825Z,49.67
2018-02-08T14:56:36.923Z,47.75
2018-02-08T14:59:06.046Z,48.09
2018-02-08T15:01:34.435Z,49.75
2018-02-08T15:04:02.779Z,49.05
2018-02-08T15:06:31.225Z,47.42
2018-02-08T15:08:59.589Z,50.32
2018-02-08T15:11:28.008Z,51.17
2018-02-08T15:13:57.227Z,52.04
2018-02-08T15:16:25.557Z,52.38
2018-02-08T15:18:54.063Z,51.47
2018-02-08T15:21:23.167Z,54.55
2018-02-08T15:23:51.656Z,52.67
2018-02-08T15:26:19.965Z,54.88
2018-02-08T15:28:48.426Z,56.87
2018-02-08T15:31:16.828Z,60.01
2018-02-08T15:33:45.284Z,61.29
2018-02-08T15:36:13.716Z,61.46
2018-02-08T15:38:42.159Z,62.79
2018-02-08T15:41:10.597Z,64.48
2018-02-08T15:43:39.792Z,65.27
2018-02-08T15:46:08.247Z,64.88
2018-02-08T15:48:37.458Z,65.78
2018-02-08T15:51:06.596Z,65.36
2018-02-08T15:53:34.992Z,65.49
2018-02-08T15:56:03.379Z,67.22
2018-02-08T15:58:32.593Z,66.44
2018-02-08T16:01:00.942Z,66.44
2018-02-08T16:03:29.297Z,67.69
2018-02-08T16:05:57.661Z,70.45
2018-02-08T16:08:26.754Z,70.08
2018-02-08T16:10:55.945Z,70.82
2018-02-08T16:13:25.091Z,71.06
2018-02-08T16:15:53.575Z,71.46
2018-02-08T16:18:21.947Z,71.48
2018-02-08T16:20:50.315Z,72.06
2018-02-08T16:23:18.660Z,73.22
2018-02-08T16:25:47.802Z,73.65
2018-02-08T16:28:16.176Z,73.82
2018-02-08T16:30:44.574Z,74.10
2018-02-08T16:33:12.896Z,74.63
2018-02-08T16:35:41.361Z,75.20
2018-02-08T16:38:09.708Z,75.31
2018-02-08T16:40:38.045Z,75.45
2018-02-08T16:43:06.429Z,75.72
2018-02-08T16:45:34.790Z,75.68
2018-02-08T16:48:03.950Z,75.50
2018-02-08T16:50:32.354Z,76.05
2018-02-08T16:53:01.494Z,76.23
2018-02-08T16:55:29.795Z,76.13
2018-02-08T16:57:58.116Z,76.23
2018-02-08T17:00:26.478Z,76.12
2018-02-08T17:02:55.652Z,75.67
2018-02-08T17:05:23.987Z,75.71
2018-02-08T17:07:52.365Z,75.92
2018-02-08T17:10:20.625Z,76.26
2018-02-08T17:12:48.897Z,76.82
2018-02-08T17:15:17.160Z,76.51
2018-02-08T17:17:46.196Z,76.93
2018-02-08T17:20:14.453Z,76.94
2018-02-08T17:22:42.728Z,77.17
2018-02-08T17:25:10.982Z,77.68
2018-02-08T17:27:40.023Z,77.69
2018-02-08T17:30:08.282Z,77.79
2018-02-08T17:32:36.586Z,78.06
2018-02-08T17:35:04.846Z,78.41
2018-02-08T17:37:33.112Z,78.32
2018-02-08T17:40:01.379Z,78.34
2018-02-08T17:42:29.638Z,78.26
2018-02-08T17:44:58.673Z,78.25
2018-02-08T17:47:26.951Z,78.42
2018-02-08T17:49:55.215Z,78.74
2018-02-08T17:52:23.469Z,79.08
2018-02-08T17:54:51.741Z,79.52
2018-02-08T17:57:20.009Z,79.72
2018-02-08T17:59:48.278Z,79.79
2018-02-08T18:02:17.303Z,80.53
2018-02-08T18:04:45.566Z,80.79
2018-02-08T18:07:13.830Z,80.73
2018-02-08T18:09:42.860Z,80.51
2018-02-08T18:12:11.120Z,80.00
2018-02-08T18:14:39.391Z,79.78
2018-02-08T18:17:07.650Z,80.41
2018-02-08T18:19:36.682Z,81.05
2018-02-08T18:22:04.948Z,81.31
2018-02-08T18:24:33.215Z,81.27
2018-02-08T18:27:01.479Z,81.04
2018-02-08T18:29:29.761Z,80.82
2018-02-08T18:31:58.044Z,80.80
2018-02-08T18:34:26.312Z,80.69
2018-02-08T18:36:54.573Z,80.70
2018-02-08T18:39:23.600Z,80.59
2018-02-08T18:41:51.865Z,80.13
2018-02-08T18:44:20.137Z,80.85
2018-02-08T18:46:48.406Z,81.23
2018-02-08T18:49:16.670Z,81.05
2018-02-08T18:51:45.706Z,81.17
2018-02-08T18:54:14.741Z,81.00
2018-02-08T18:56:43.773Z,81.71
2018-02-08T18:59:12.046Z,82.56
2018-02-08T19:01:40.305Z,81.22
2018-02-08T19:04:08.577Z,80.98
2018-02-08T19:06:37.610Z,81.54
2018-02-08T19:09:05.872Z,81.65
2018-02-08T19:11:34.149Z,81.55
2018-02-08T19:14:02.411Z,81.67
2018-02-08T19:16:30.674Z,81.90
2018-02-08T19:18:58.934Z,82.14
2018-02-08T19:21:27.977Z,81.95
2018-02-08T19:23:56.230Z,82.05
2018-02-08T19:26:24.505Z,81.41
2018-02-08T19:28:52.762Z,82.43
2018-02-08T19:31:21.796Z,82.19
2018-02-08T19:33:50.054Z,82.21
2018-02-08T19:36:18.314Z,82.29
2018-02-08T19:38:47.330Z,82.36
2018-02-08T19:41:15.606Z,82.48
2018-02-08T19:43:43.871Z,82.47
2018-02-08T19:46:12.218Z,82.17
2018-02-08T19:48:40.471Z,82.21
2018-02-08T19:51:08.729Z,82.06
2018-02-08T19:53:37.035Z,81.92
2018-02-08T19:56:05.269Z,81.87
2018-02-08T19:58:33.521Z,82.03
2018-02-08T20:01:01.782Z,82.26
2018-02-08T20:03:30.803Z,82.25
2018-02-08T20:05:59.069Z,82.20
2018-02-08T20:08:27.339Z,82.86
2018-02-08T20:10:56.367Z,82.96
2018-02-08T20:13:24.630Z,83.01
2018-02-08T20:15:52.901Z,83.11
2018-02-08T20:18:21.154Z,83.17
2018-02-08T20:20:50.175Z,83.04
2018-02-08T20:23:18.439Z,83.11
2018-02-08T20:25:46.698Z,83.34
2018-02-08T20:28:15.735Z,83.41
2018-02-08T20:30:49.317Z,83.77
2018-02-08T20:33:17.583Z,84.06
2018-02-08T20:35:45.841Z,84.08
2018-02-08T20:38:14.870Z,83.85
2018-02-08T20:40:43.128Z,83.71
2018-02-08T20:43:16.888Z,83.09
2018-02-08T20:45:45.156Z,83.73
2018-02-08T20:48:13.422Z,83.80
2018-02-08T20:50:41.677Z,83.39
2018-02-08T20:53:09.947Z,82.87
2018-02-08T20:55:38.210Z,83.02
2018-02-08T20:58:06.483Z,83.26
2018-02-08T21:00:34.754Z,82.88
2018-02-08T21:03:03.044Z,83.29
2018-02-08T21:05:31.302Z,83.31
2018-02-08T21:08:00.336Z,83.20
2018-02-08T21:10:28.590Z,83.34
2018-02-08T21:12:56.860Z,83.75
2018-02-08T21:15:25.139Z,83.73
2018-02-08T21:17:53.406Z,83.55
2018-02-08T21:20:21.675Z,83.44
2018-02-08T21:22:50.714Z,83.54
2018-02-08T21:25:18.975Z,83.83
2018-02-08T21:27:47.235Z,83.86
2018-02-08T21:30:15.696Z,83.30
2018-02-08T21:32:44.019Z,84.31
2018-02-08T21:35:12.267Z,84.32
2018-02-08T21:37:40.533Z,84.18
2018-02-08T21:40:08.789Z,83.75
2018-02-08T21:42:37.818Z,83.34
2018-02-08T21:45:06.071Z,83.25
2018-02-08T21:47:34.333Z,84.04
2018-02-08T21:50:03.360Z,83.88
2018-02-08T21:52:31.627Z,84.15
2018-02-08T21:54:59.898Z,85.04
2018-02-08T21:57:28.166Z,84.43
2018-02-08T21:59:56.432Z,84.56
2018-02-08T22:02:25.466Z,85.41
2018-02-08T22:04:53.741Z,85.05
2018-02-08T22:07:21.988Z,86.55
2018-02-08T22:09:50.245Z,87.50
2018-02-08T22:12:19.273Z,87.93
2018-02-08T22:14:47.528Z,87.94
2018-02-08T22:17:16.566Z,88.18
2018-02-08T22:19:45.587Z,88.13
2018-02-08T22:22:13.848Z,87.35
2018-02-08T22:24:42.102Z,88.30
2018-02-08T22:27:10.415Z,87.33
2018-02-08T22:29:38.661Z,87.55
2018-02-08T22:32:06.923Z,87.66
2018-02-08T22:34:35.189Z,87.26
2018-02-08T22:37:03.450Z,87.09
2018-02-08T22:39:31.717Z,88.11
2018-02-08T22:42:00.745Z,88.06
2018-02-08T22:44:29.001Z,86.58
2018-02-08T22:46:57.257Z,88.71
2018-02-08T22:49:26.290Z,88.50
2018-02-08T22:51:54.547Z,87.99
2018-02-08T22:54:22.809Z,87.82
2018-02-08T22:56:51.826Z,87.51
2018-02-08T22:59:20.093Z,87.31
2018-02-08T23:01:48.366Z,87.24
2018-02-08T23:04:16.634Z,87.18
2018-02-08T23:06:44.902Z,86.90
2018-02-08T23:09:13.947Z,87.77
2018-02-08T23:11:42.200Z,88.26
2018-02-08T23:14:10.461Z,88.62
2018-02-08T23:16:38.719Z,87.10
2018-02-08T23:19:07.738Z,87.18
2018-02-08T23:21:35.994Z,88.77
2018-02-08T23:24:04.258Z,89.09
2018-02-08T23:26:33.277Z,89.04
2018-02-08T23:29:01.540Z,89.10
2018-02-08T23:31:29.797Z,88.65
2018-02-08T23:33:58.054Z,87.87
2018-02-08T23:36:26.305Z,88.50
2018-02-08T23:38:54.576Z,88.96
2018-02-08T23:41:22.843Z,88.57
2018-02-08T23:43:51.106Z,89.27
2018-02-08T23:46:19.357Z,89.44
2018-02-08T23:48:48.382Z,88.79
2018-02-08T23:51:16.633Z,88.16
2018-02-08T23:53:45.652Z,88.15
2018-02-08T23:56:13.913Z,88.56
2018-02-08T23:58:42.171Z,88.92
